createdAt,value
2017-10-02T00:00:55.267Z,99280.94
2017-10-02T00:03:26.557Z,99272.27
2017-10-02T00:05:58.583Z,99263.94
2017-10-02T00:08:33.132Z,99258.06
2017-10-02T00:11:08.282Z,99248.08
2017-10-02T00:13:39.712Z,99243.69
2017-10-02T00:16:13.453Z,99247.13
2017-10-02T00:18:46.954Z,99233.22
2017-10-02T00:21:18.215Z,99237.80
2017-10-02T00:23:49.959Z,99235.02
2017-10-02T00:26:21.897Z,99232.35
2017-10-02T00:28:53.854Z,99236.57
2017-10-02T00:31:29.984Z,99233.20
2017-10-02T00:34:01.843Z,99232.22
2017-10-02T00:36:33.447Z,99228.52
2017-10-02T00:39:06.692Z,99230.95
2017-10-02T00:41:41.311Z,99229.75
2017-10-02T00:44:17.082Z,99220.44
2017-10-02T00:46:56.325Z,99216.68
2017-10-02T00:49:27.983Z,99212.55
2017-10-02T00:52:03.955Z,99206.74
2017-10-02T00:54:40.296Z,99208.91
2017-10-02T00:57:18.102Z,99197.14
2017-10-02T00:59:56.092Z,99198.05
2017-10-02T01:02:27.892Z,99201.41
2017-10-02T01:04:59.471Z,99198.20
2017-10-02T01:07:34.609Z,99202.39
2017-10-02T01:10:07.806Z,99195.53
2017-10-02T01:12:39.886Z,99185.45
2017-10-02T01:15:17.370Z,99193.78
2017-10-02T01:18:07.035Z,99186.09
2017-10-02T01:20:52.675Z,99184.83
2017-10-02T01:26:08.000Z,99187.71
2017-10-02T01:28:39.887Z,99193.44
2017-10-02T01:31:11.512Z,99192.16
2017-10-02T01:33:43.931Z,99192.94
2017-10-02T01:36:15.030Z,99187.13
2017-10-02T01:38:47.749Z,99186.55
2017-10-02T01:41:23.516Z,99187.56
2017-10-02T01:43:54.852Z,99187.14
2017-10-02T01:46:28.469Z,99178.72
2017-10-02T01:48:59.748Z,99170.55
2017-10-02T01:51:30.957Z,99164.77
2017-10-02T01:54:04.340Z,99157.86
2017-10-02T01:56:35.803Z,99157.59
2017-10-02T01:59:16.155Z,99148.66
2017-10-02T02:01:51.577Z,99153.52
2017-10-02T02:07:05.634Z,99142.92
2017-10-02T02:09:36.331Z,99140.27
2017-10-02T02:12:33.188Z,99138.91
2017-10-02T02:15:08.968Z,99135.07
2017-10-02T02:17:40.586Z,99115.66
2017-10-02T02:20:12.492Z,99115.89
2017-10-02T02:22:43.615Z,99119.72
2017-10-02T02:25:18.103Z,99115.70
2017-10-02T02:27:50.569Z,99113.34
2017-10-02T02:30:21.840Z,99107.88
2017-10-02T02:32:54.213Z,99106.14
2017-10-02T02:35:27.593Z,99108.03
2017-10-02T02:38:02.724Z,99111.69
2017-10-02T02:40:34.918Z,99104.14
2017-10-02T02:43:06.435Z,99099.92
2017-10-02T02:45:39.520Z,99101.17
2017-10-02T02:48:11.287Z,99105.45
2017-10-02T02:50:43.049Z,99104.77
2017-10-02T02:53:13.766Z,99102.02
2017-10-02T02:55:45.611Z,99096.63
2017-10-02T02:58:17.486Z,99088.55
2017-10-02T03:00:48.884Z,99090.52
2017-10-02T03:03:21.141Z,99080.98
2017-10-02T03:05:52.837Z,99075.38
2017-10-02T03:08:24.116Z,99077.73
2017-10-02T03:10:56.438Z,99071.92
2017-10-02T03:13:27.784Z,99074.88
2017-10-02T03:16:01.480Z,99071.53
2017-10-02T03:18:33.344Z,99067.61
2017-10-02T03:21:05.005Z,99065.75
2017-10-02T03:23:38.190Z,99068.52
2017-10-02T03:26:14.698Z,99069.33
2017-10-02T03:28:45.845Z,99063.28
2017-10-02T03:31:17.698Z,99068.66
2017-10-02T03:33:50.522Z,99060.95
2017-10-02T03:36:21.516Z,99057.52
2017-10-02T03:38:54.811Z,99064.50
2017-10-02T03:41:26.165Z,99062.11
2017-10-02T03:43:57.111Z,99071.37
2017-10-02T03:46:30.097Z,99062.61
2017-10-02T03:49:02.881Z,99066.67
2017-10-02T03:51:37.433Z,99067.52
2017-10-02T03:54:09.787Z,99070.70
2017-10-02T03:56:41.023Z,99065.41
2017-10-02T03:59:12.399Z,99074.38
2017-10-02T04:01:43.391Z,99070.95
2017-10-02T04:04:14.898Z,99061.17
2017-10-02T04:06:46.310Z,99064.43
2017-10-02T04:09:17.815Z,99062.29
2017-10-02T04:11:54.196Z,99052.89
2017-10-02T04:14:27.930Z,99056.68
2017-10-02T04:16:59.163Z,99053.14
2017-10-02T04:19:30.451Z,99048.72
2017-10-02T04:22:03.439Z,99046.80
2017-10-02T04:24:34.304Z,99041.98
2017-10-02T04:27:05.238Z,99037.71
2017-10-02T04:29:36.645Z,99031.92
2017-10-02T04:32:08.857Z,99030.45
2017-10-02T04:34:40.613Z,99021.02
2017-10-02T04:37:12.599Z,99020.39
2017-10-02T04:39:43.737Z,99013.31
2017-10-02T04:42:15.746Z,99003.96
2017-10-02T04:44:47.001Z,98999.86
2017-10-02T04:47:17.698Z,98990.75
2017-10-02T04:52:36.046Z,98995.66
2017-10-02T04:55:07.573Z,98990.12
2017-10-02T04:57:39.912Z,98986.81
2017-10-02T05:00:15.066Z,98985.77
2017-10-02T05:02:47.173Z,98974.89
2017-10-02T05:05:17.714Z,98970.05
2017-10-02T05:07:50.352Z,98966.06
2017-10-02T05:10:23.637Z,98960.45
2017-10-02T05:13:02.689Z,98958.63
2017-10-02T05:15:38.565Z,98959.84
2017-10-02T05:18:09.576Z,98955.86
2017-10-02T05:20:40.801Z,98951.39
2017-10-02T05:23:12.583Z,98950.03
2017-10-02T05:25:43.351Z,98942.33
2017-10-02T05:28:14.716Z,98950.11
2017-10-02T05:30:50.061Z,98950.12
2017-10-02T05:33:20.752Z,98940.59
2017-10-02T05:35:51.921Z,98941.57
2017-10-02T05:38:24.549Z,98941.15
2017-10-02T05:40:55.483Z,98948.58
2017-10-02T05:43:27.550Z,98953.09
2017-10-02T05:45:58.260Z,98950.13
2017-10-02T05:48:30.367Z,98952.45
2017-10-02T05:51:01.245Z,98958.20
2017-10-02T05:53:32.420Z,98964.11
2017-10-02T05:56:03.298Z,98961.92
2017-10-02T05:58:38.869Z,98965.88
2017-10-02T06:01:14.130Z,98965.86
2017-10-02T06:03:46.688Z,98958.02
2017-10-02T06:06:19.375Z,98955.81
2017-10-02T06:09:01.092Z,98953.42
2017-10-02T06:11:32.114Z,98954.14
2017-10-02T06:14:03.260Z,98954.54
2017-10-02T06:16:35.207Z,98963.73
2017-10-02T06:19:06.595Z,98961.64
2017-10-02T06:21:39.939Z,98961.64
2017-10-02T06:24:15.859Z,98961.69
2017-10-02T06:26:46.672Z,98957.42
2017-10-02T06:29:17.119Z,98950.45
2017-10-02T06:31:53.457Z,98947.41
2017-10-02T06:34:24.546Z,98941.84
2017-10-02T06:36:55.059Z,98945.72
2017-10-02T06:42:01.397Z,98930.09
2017-10-02T06:44:37.281Z,98930.73
2017-10-02T06:47:10.842Z,98924.08
2017-10-02T06:49:43.289Z,98911.17
2017-10-02T06:52:20.336Z,98907.00
2017-10-02T06:54:51.063Z,98900.16
2017-10-02T06:57:24.513Z,98907.92
2017-10-02T06:59:58.867Z,98914.52
2017-10-02T07:02:33.421Z,98910.70
2017-10-02T07:05:07.435Z,98912.22
2017-10-02T07:07:43.679Z,98896.81
2017-10-02T07:10:16.236Z,98916.32
2017-10-02T07:12:50.958Z,98909.96
2017-10-02T07:15:22.659Z,98907.94
2017-10-02T07:17:53.450Z,98910.61
2017-10-02T07:20:26.153Z,98907.36
2017-10-02T07:22:58.354Z,98912.19
2017-10-02T07:25:33.416Z,98903.53
2017-10-02T07:28:04.245Z,98898.80
2017-10-02T07:30:36.839Z,98902.23
2017-10-02T07:33:08.312Z,98906.19
2017-10-02T07:35:38.731Z,98903.56
2017-10-02T07:38:14.000Z,98904.22
2017-10-02T07:40:47.141Z,98888.45
2017-10-02T07:43:17.710Z,98898.45
2017-10-02T07:45:48.320Z,98894.08
2017-10-02T07:48:19.075Z,98893.25
2017-10-02T07:50:50.676Z,98897.84
2017-10-02T07:53:21.761Z,98904.53
2017-10-02T07:55:56.907Z,98899.08
2017-10-02T07:58:27.798Z,98906.53
2017-10-02T08:00:59.760Z,98906.84
2017-10-02T08:03:30.609Z,98909.83
2017-10-02T08:06:06.473Z,98903.70
2017-10-02T08:08:37.581Z,98902.31
2017-10-02T08:11:08.923Z,98903.83
2017-10-02T08:13:42.582Z,98897.00
2017-10-02T08:16:13.679Z,98896.91
2017-10-02T08:18:45.581Z,98885.25
2017-10-02T08:21:17.397Z,98889.34
2017-10-02T08:23:50.394Z,98886.16
2017-10-02T08:26:25.441Z,98889.50
2017-10-02T08:29:03.524Z,98887.75
2017-10-02T08:31:39.317Z,98888.16
2017-10-02T08:34:10.967Z,98891.97
2017-10-02T08:36:41.924Z,98885.20
2017-10-02T08:39:13.094Z,98883.83
2017-10-02T08:41:43.939Z,98884.51
2017-10-02T08:44:14.730Z,98879.14
2017-10-02T08:46:51.584Z,98867.94
2017-10-02T08:52:13.303Z,98859.67
2017-10-02T08:55:04.524Z,98870.08
2017-10-02T09:02:45.422Z,98850.33
2017-10-02T09:05:16.405Z,98844.88
2017-10-02T09:07:48.182Z,98840.63
2017-10-02T09:10:19.454Z,98824.59
2017-10-02T09:12:50.254Z,98811.13
2017-10-02T09:15:21.111Z,98827.77
2017-10-02T09:17:57.337Z,98832.34
2017-10-02T09:20:40.499Z,98833.19
2017-10-02T09:23:13.244Z,98828.30
2017-10-02T09:28:30.644Z,98825.44
2017-10-02T09:31:02.515Z,98821.72
2017-10-02T09:33:35.848Z,98825.71
2017-10-02T09:36:09.258Z,98818.07
2017-10-02T09:38:41.536Z,98821.33
2017-10-02T09:41:22.160Z,98822.05
2017-10-02T09:43:54.544Z,98820.20
2017-10-02T09:46:25.453Z,98812.66
2017-10-02T09:48:56.257Z,98821.70
2017-10-02T09:51:27.824Z,98811.34
2017-10-02T09:53:59.067Z,98805.85
2017-10-02T09:56:29.751Z,98803.25
2017-10-02T09:59:00.621Z,98799.92
2017-10-02T10:01:31.362Z,98802.13
2017-10-02T10:04:02.436Z,98800.00
2017-10-02T10:06:33.302Z,98803.17
2017-10-02T10:09:04.209Z,98802.67
2017-10-02T10:11:35.409Z,98796.98
2017-10-02T10:14:06.387Z,98789.13
2017-10-02T10:16:46.769Z,98787.48
2017-10-02T10:19:17.525Z,98778.86
2017-10-02T10:21:48.224Z,98782.83
2017-10-02T10:24:19.743Z,98772.20
2017-10-02T10:26:51.539Z,98769.10
2017-10-02T10:29:22.695Z,98765.37
2017-10-02T10:31:53.938Z,98772.91
2017-10-02T10:34:25.690Z,98758.31
2017-10-02T10:36:58.401Z,98762.58
2017-10-02T10:39:29.510Z,98757.14
2017-10-02T10:42:01.450Z,98756.44
2017-10-02T10:44:32.942Z,98755.97
2017-10-02T10:47:04.112Z,98747.43
2017-10-02T10:49:36.041Z,98749.41
2017-10-02T10:52:09.425Z,98751.47
2017-10-02T10:54:41.459Z,98752.35
2017-10-02T10:57:12.705Z,98748.38
2017-10-02T10:59:43.303Z,98748.75
2017-10-02T11:02:13.853Z,98752.91
2017-10-02T11:04:45.378Z,98747.84
2017-10-02T11:07:16.360Z,98750.16
2017-10-02T11:09:47.953Z,98745.84
2017-10-02T11:12:20.451Z,98754.50
2017-10-02T11:14:51.357Z,98750.61
2017-10-02T11:17:22.834Z,98744.05
2017-10-02T11:19:54.668Z,98749.52
2017-10-02T11:22:26.431Z,98752.61
2017-10-02T11:25:00.038Z,98748.73
2017-10-02T11:27:31.796Z,98754.83
2017-10-02T11:30:03.044Z,98752.41
2017-10-02T11:32:34.997Z,98755.70
2017-10-02T11:35:07.626Z,98760.02
2017-10-02T11:37:39.313Z,98758.59
2017-10-02T11:40:16.502Z,98756.88
2017-10-02T11:42:52.633Z,98762.06
2017-10-02T11:45:26.268Z,98761.64
2017-10-02T11:47:58.949Z,98757.88
2017-10-02T11:50:36.052Z,98758.56
2017-10-02T11:53:07.962Z,98758.88
2017-10-02T11:55:39.462Z,98758.80
2017-10-02T11:58:10.230Z,98764.31
2017-10-02T12:00:41.397Z,98769.76
2017-10-02T12:03:12.015Z,98763.20
2017-10-02T12:05:43.967Z,98766.59
2017-10-02T12:08:15.967Z,98751.73
2017-10-02T12:10:47.100Z,98743.02
2017-10-02T12:13:18.133Z,98743.28
2017-10-02T12:15:50.009Z,98737.34
2017-10-02T12:18:27.926Z,98725.34
2017-10-02T12:21:06.794Z,98717.16
2017-10-02T12:23:43.375Z,98709.16
2017-10-02T12:28:55.739Z,98712.74
2017-10-02T12:31:32.432Z,98701.28
2017-10-02T12:34:07.455Z,98701.03
2017-10-02T12:36:44.508Z,98700.28
2017-10-02T12:39:16.107Z,98709.28
2017-10-02T12:41:47.267Z,98711.32
2017-10-02T12:44:18.537Z,98709.31
2017-10-02T12:46:57.662Z,98720.99
2017-10-02T12:49:40.400Z,98712.80
2017-10-02T12:52:11.139Z,98710.82
2017-10-02T12:54:42.644Z,98702.79
2017-10-02T12:57:13.374Z,98697.27
2017-10-02T12:59:44.614Z,98686.64
2017-10-02T13:02:15.091Z,98690.13
2017-10-02T13:04:46.138Z,98707.84
2017-10-02T13:07:16.541Z,98724.66
2017-10-02T13:09:47.546Z,98732.98
2017-10-02T13:12:18.229Z,98722.87
2017-10-02T13:14:49.487Z,98725.80
2017-10-02T13:17:24.526Z,98722.98
2017-10-02T13:19:55.433Z,98731.94
2017-10-02T13:22:25.997Z,98724.54
2017-10-02T13:24:58.413Z,98727.18
2017-10-02T13:27:29.539Z,98733.88
2017-10-02T13:30:02.932Z,98734.45
2017-10-02T13:32:33.543Z,98737.77
2017-10-02T13:35:05.423Z,98739.53
2017-10-02T13:37:35.947Z,98737.44
2017-10-02T13:40:07.290Z,98736.94
2017-10-02T13:42:38.968Z,98746.59
2017-10-02T13:45:09.911Z,98744.67
2017-10-02T13:47:40.906Z,98742.83
2017-10-02T13:50:12.943Z,98738.73
2017-10-02T13:52:43.549Z,98739.83
2017-10-02T13:55:14.418Z,98722.67
2017-10-02T13:57:44.943Z,98715.78
2017-10-02T14:00:15.971Z,98711.02
2017-10-02T14:02:49.395Z,98710.84
2017-10-02T14:05:23.421Z,98695.95
2017-10-02T14:07:55.335Z,98689.81
2017-10-02T14:10:30.706Z,98693.45
2017-10-02T14:13:01.792Z,98704.07
2017-10-02T14:15:34.589Z,98703.66
2017-10-02T14:18:05.221Z,98706.33
2017-10-02T14:20:37.762Z,98700.39
2017-10-02T14:23:09.666Z,98699.73
2017-10-02T14:25:41.122Z,98695.63
2017-10-02T14:28:12.085Z,98691.36
2017-10-02T14:30:43.565Z,98687.27
2017-10-02T14:33:21.042Z,98685.59
2017-10-02T14:35:58.257Z,98679.06
2017-10-02T14:38:31.009Z,98678.19
2017-10-02T14:41:02.288Z,98669.25
2017-10-02T14:43:33.428Z,98660.84
2017-10-02T14:46:04.210Z,98662.34
2017-10-02T14:48:35.050Z,98663.09
2017-10-02T14:51:07.155Z,98662.17
2017-10-02T14:53:39.091Z,98657.24
2017-10-02T14:56:11.076Z,98662.77
2017-10-02T14:58:43.477Z,98661.34
2017-10-02T15:01:14.496Z,98664.47
2017-10-02T15:03:45.417Z,98673.33
2017-10-02T15:06:17.966Z,98679.44
2017-10-02T15:08:48.783Z,98676.38
2017-10-02T15:11:25.760Z,98667.98
2017-10-02T15:13:57.861Z,98678.94
2017-10-02T15:16:29.026Z,98670.52
2017-10-02T15:19:00.418Z,98671.39
2017-10-02T15:21:31.667Z,98665.11
2017-10-02T15:24:03.150Z,98655.77
2017-10-02T15:26:37.466Z,98655.36
2017-10-02T15:29:08.971Z,98657.45
2017-10-02T15:31:42.675Z,98664.39
2017-10-02T15:34:14.077Z,98662.72
2017-10-02T15:36:46.080Z,98672.53
2017-10-02T15:39:19.316Z,98667.41
2017-10-02T15:41:56.005Z,98671.39
2017-10-02T15:44:29.708Z,98668.55
2017-10-02T15:47:05.233Z,98672.95
2017-10-02T15:49:40.004Z,98702.73
2017-10-02T15:52:19.768Z,98707.51
2017-10-02T15:54:54.738Z,98701.65
2017-10-02T15:57:29.294Z,98700.14
2017-10-02T16:00:02.667Z,98688.52
2017-10-02T16:02:35.908Z,98682.23
2017-10-02T16:05:10.666Z,98677.97
2017-10-02T16:07:45.798Z,98676.22
2017-10-02T16:10:22.680Z,98674.63
2017-10-02T16:12:53.566Z,98676.58
2017-10-02T16:15:30.518Z,98670.88
2017-10-02T16:18:02.178Z,98668.96
2017-10-02T16:20:34.474Z,98672.75
2017-10-02T16:23:15.276Z,98668.20
2017-10-02T16:25:47.820Z,98662.94
2017-10-02T16:28:26.503Z,98663.02
2017-10-02T16:31:01.459Z,98659.14
2017-10-02T16:33:38.708Z,98667.37
2017-10-02T16:36:12.460Z,98665.17
2017-10-02T16:38:45.790Z,98660.17
2017-10-02T16:41:21.227Z,98668.02
2017-10-02T16:43:53.047Z,98667.84
2017-10-02T16:46:28.304Z,98660.80
2017-10-02T16:49:04.957Z,98659.03
2017-10-02T16:51:41.109Z,98659.63
2017-10-02T16:54:12.307Z,98667.07
2017-10-02T16:56:46.198Z,98672.14
2017-10-02T16:59:17.737Z,98668.71
2017-10-02T17:01:50.252Z,98666.87
2017-10-02T17:04:21.442Z,98668.64
2017-10-02T17:06:53.926Z,98658.86
2017-10-02T17:09:26.294Z,98658.66
2017-10-02T17:11:59.507Z,98654.81
2017-10-02T17:14:36.973Z,98659.08
2017-10-02T17:17:09.469Z,98657.49
2017-10-02T17:19:46.904Z,98670.33
2017-10-02T17:22:24.150Z,98669.83
2017-10-02T17:24:57.184Z,98667.16
2017-10-02T17:27:33.726Z,98675.60
2017-10-02T17:30:07.252Z,98669.41
2017-10-02T17:32:42.545Z,98665.15
2017-10-02T17:35:21.739Z,98658.45
2017-10-02T17:37:53.554Z,98657.79
2017-10-02T17:40:26.243Z,98658.55
2017-10-02T17:43:04.559Z,98643.48
2017-10-02T17:45:37.759Z,98641.98
2017-10-02T17:48:09.619Z,98649.84
2017-10-02T17:50:42.868Z,98654.28
2017-10-02T17:53:15.183Z,98653.66
2017-10-02T17:55:54.238Z,98654.08
2017-10-02T17:58:35.327Z,98658.50
2017-10-02T18:01:19.603Z,98665.81
2017-10-02T18:03:51.131Z,98660.34
2017-10-02T18:06:24.787Z,98656.37
2017-10-02T18:08:56.050Z,98660.89
2017-10-02T18:11:31.895Z,98653.77
2017-10-02T18:14:09.603Z,98647.09
2017-10-02T18:19:53.372Z,98656.12
2017-10-02T18:22:25.498Z,98648.31
2017-10-02T18:24:57.507Z,98650.69
2017-10-02T18:27:31.821Z,98656.78
2017-10-02T18:30:10.298Z,98660.46
2017-10-02T18:32:43.456Z,98665.98
2017-10-02T18:35:16.330Z,98670.08
2017-10-02T18:37:52.177Z,98674.59
2017-10-02T18:40:24.164Z,98678.28
2017-10-02T18:42:57.135Z,98678.78
2017-10-02T18:45:33.571Z,98680.78
2017-10-02T18:48:06.070Z,98675.50
2017-10-02T18:50:47.796Z,98674.13
2017-10-02T18:53:21.755Z,98668.70
2017-10-02T18:55:54.916Z,98660.08
2017-10-02T18:58:26.356Z,98661.84
2017-10-02T19:01:00.054Z,98649.80
2017-10-02T19:03:32.781Z,98649.38
2017-10-02T19:06:07.209Z,98650.97
2017-10-02T19:08:39.642Z,98657.91
2017-10-02T19:11:11.497Z,98659.91
2017-10-02T19:13:42.348Z,98663.12
2017-10-02T19:16:15.688Z,98659.87
2017-10-02T19:18:48.546Z,98655.60
2017-10-02T19:21:25.671Z,98657.19
2017-10-02T19:23:57.732Z,98657.97
2017-10-02T19:26:30.741Z,98665.92
2017-10-02T19:29:02.977Z,98665.80
2017-10-02T19:31:37.671Z,98671.39
2017-10-02T19:34:08.965Z,98661.59
2017-10-02T19:36:43.429Z,98659.63
2017-10-02T19:39:15.444Z,98655.33
2017-10-02T19:41:48.969Z,98660.84
2017-10-02T19:44:25.609Z,98664.95
2017-10-02T19:46:59.458Z,98665.61
2017-10-02T19:49:32.563Z,98661.57
2017-10-02T19:52:05.819Z,98666.84
2017-10-02T19:54:40.911Z,98649.52
2017-10-02T19:57:13.093Z,98641.08
2017-10-02T19:59:46.169Z,98635.94
2017-10-02T20:02:19.877Z,98631.59
2017-10-02T20:04:53.329Z,98631.80
2017-10-02T20:07:28.170Z,98632.43
2017-10-02T20:09:59.889Z,98625.44
2017-10-02T20:12:31.746Z,98626.41
2017-10-02T20:15:04.990Z,98618.50
2017-10-02T20:17:38.794Z,98618.24
2017-10-02T20:20:12.601Z,98624.71
2017-10-02T20:22:46.862Z,98621.28
2017-10-02T20:25:19.882Z,98628.50
2017-10-02T20:27:53.007Z,98616.95
2017-10-02T20:30:25.629Z,98623.31
2017-10-02T20:32:58.384Z,98620.22
2017-10-02T20:35:31.052Z,98615.70
2017-10-02T20:38:04.030Z,98619.58
2017-10-02T20:40:37.649Z,98624.95
2017-10-02T20:43:09.987Z,98618.26
2017-10-02T20:45:44.393Z,98614.23
2017-10-02T20:48:17.131Z,98623.33
2017-10-02T20:50:50.956Z,98618.66
2017-10-02T20:53:22.152Z,98623.92
2017-10-02T20:55:52.927Z,98619.98
2017-10-02T20:58:29.790Z,98610.70
2017-10-02T21:01:09.788Z,98606.95
2017-10-02T21:03:44.654Z,98606.44
2017-10-02T21:06:21.290Z,98599.66
2017-10-02T21:08:53.812Z,98598.41
2017-10-02T21:11:32.211Z,98588.80
2017-10-02T21:14:13.329Z,98588.86
2017-10-02T21:16:45.740Z,98579.67
2017-10-02T21:19:17.822Z,98581.75
2017-10-02T21:21:49.692Z,98571.30
2017-10-02T21:24:23.672Z,98563.59
2017-10-02T21:26:56.150Z,98560.33
2017-10-02T21:29:27.580Z,98556.98
2017-10-02T21:31:58.687Z,98553.30
2017-10-02T21:34:32.501Z,98557.99
2017-10-02T21:37:04.924Z,98546.28
2017-10-02T21:39:35.851Z,98549.56
2017-10-02T21:42:06.637Z,98546.45
2017-10-02T21:44:39.729Z,98547.70
2017-10-02T21:47:14.036Z,98558.92
2017-10-02T21:49:46.191Z,98562.43
2017-10-02T21:52:17.452Z,98571.47
2017-10-02T21:54:49.531Z,98584.85
2017-10-02T21:57:24.225Z,98588.59
2017-10-02T21:59:55.550Z,98592.45
2017-10-02T22:02:26.879Z,98600.64
2017-10-02T22:04:59.474Z,98603.24
2017-10-02T22:07:32.811Z,98612.61
2017-10-02T22:10:06.678Z,98608.84
2017-10-02T22:12:43.042Z,98606.33
2017-10-02T22:15:22.761Z,98619.80
2017-10-02T22:17:56.157Z,98610.84
2017-10-02T22:20:30.674Z,98600.73
2017-10-02T22:23:03.509Z,98590.60
2017-10-02T22:25:37.629Z,98589.04
2017-10-02T22:28:12.979Z,98594.95
2017-10-02T22:30:46.926Z,98585.00
2017-10-02T22:33:19.946Z,98581.38
2017-10-02T22:35:51.776Z,98591.92
2017-10-02T22:38:22.727Z,98591.37
2017-10-02T22:40:54.672Z,98598.81
2017-10-02T22:43:26.392Z,98604.84
2017-10-02T22:45:59.256Z,98592.66
2017-10-02T22:48:34.258Z,98595.77
2017-10-02T22:51:05.596Z,98595.39
2017-10-02T22:53:37.298Z,98596.95
2017-10-02T22:56:08.353Z,98594.24
2017-10-02T22:58:40.423Z,98595.86
2017-10-02T23:01:14.354Z,98597.13
2017-10-02T23:03:47.967Z,98592.23
2017-10-02T23:06:19.880Z,98589.66
2017-10-02T23:08:54.309Z,98592.45
2017-10-02T23:11:27.011Z,98592.00
2017-10-02T23:14:00.711Z,98591.69
2017-10-02T23:16:34.106Z,98585.85
2017-10-02T23:19:14.454Z,98585.40
2017-10-02T23:21:48.479Z,98585.34
2017-10-02T23:24:29.778Z,98579.16
2017-10-02T23:27:07.249Z,98581.44
2017-10-02T23:32:25.318Z,98581.34
2017-10-02T23:35:51.890Z,98581.94
2017-10-02T23:38:47.419Z,98591.66
2017-10-02T23:44:28.688Z,98588.20
2017-10-02T23:47:01.534Z,98589.47
2017-10-02T23:49:33.069Z,98595.73
2017-10-02T23:52:04.367Z,98599.94
2017-10-02T23:54:36.665Z,98610.53
2017-10-02T23:57:08.736Z,98614.28
2017-10-02T23:59:39.475Z,98614.47
